Time;durP1;ratioP1;P1;durP2;ratioP2;P2;SDS_P1;SDS_P2;PMS_P1;PMS_P2;Temp;Humidity;BMP_temperature;BMP_pressure;BME280_temperature;BME280_humidity;BME280_pressure;Samples;Min_cycle;Max_cycle;Signal;HPM_P1;HPM_P2
2023/02/19 00:01:05;;;;;;;13.73;7.82;;;11.00;88.00;;;;;;5047276;28;20033;-72
2023/02/19 00:03:31;;;;;;;16.77;6.60;;;11.00;87.90;;;;;;5047910;28;20037;-73
2023/02/19 00:06:00;;;;;;;13.50;6.68;;;11.00;87.90;;;;;;5044269;28;20635;-73
2023/02/19 00:08:27;;;;;;;16.02;6.70;;;11.00;87.80;;;;;;5029219;28;20020;-76
2023/02/19 00:10:53;;;;;;;16.55;6.30;;;11.00;87.70;;;;;;5038861;28;20038;-75
2023/02/19 00:13:19;;;;;;;11.45;6.10;;;11.00;87.70;;;;;;5046142;28;20060;-77
2023/02/19 00:15:44;;;;;;;13.85;6.50;;;10.90;87.60;;;;;;5041433;28;20070;-75
2023/02/19 00:18:10;;;;;;;15.85;6.45;;;10.90;87.70;;;;;;5039485;28;20373;-74
2023/02/19 00:20:36;;;;;;;12.80;6.97;;;11.00;87.70;;;;;;5038091;28;20029;-73
2023/02/19 00:23:01;;;;;;;15.77;6.60;;;10.90;87.50;;;;;;5039985;28;20548;-77
2023/02/19 00:25:27;;;;;;;14.98;6.07;;;11.00;87.30;;;;;;5042624;28;20119;-74
2023/02/19 00:27:53;;;;;;;14.60;6.13;;;10.90;87.20;;;;;;5047272;28;20017;-73
2023/02/19 00:30:19;;;;;;;15.23;6.13;;;11.00;87.00;;;;;;5048396;28;20048;-75
2023/02/19 00:32:50;;;;;;;11.90;5.05;;;10.90;86.80;;;;;;5051310;28;20047;-79
2023/02/19 00:35:16;;;;;;;12.90;5.78;;;10.90;86.90;;;;;;5041565;28;20049;-75
2023/02/19 00:37:41;;;;;;;14.75;5.10;;;10.90;86.80;;;;;;5042715;28;20395;-80
2023/02/19 00:40:07;;;;;;;13.07;4.97;;;10.90;86.70;;;;;;5041157;28;20465;-71
2023/02/19 00:42:33;;;;;;;16.67;5.35;;;10.90;86.70;;;;;;5046296;28;20037;-72
2023/02/19 00:44:59;;;;;;;12.90;4.60;;;10.80;86.80;;;;;;5048512;28;20032;-76
2023/02/19 00:47:25;;;;;;;13.18;4.88;;;10.90;86.60;;;;;;5042099;28;20061;-77
2023/02/19 00:49:51;;;;;;;14.77;4.65;;;10.80;86.60;;;;;;5042454;28;20396;-73
2023/02/19 00:52:16;;;;;;;11.23;4.85;;;10.80;86.50;;;;;;5027422;28;20119;-77
2023/02/19 00:54:42;;;;;;;12.13;4.60;;;10.80;86.50;;;;;;5045759;28;20033;-76
2023/02/19 00:57:08;;;;;;;12.00;4.53;;;10.90;86.20;;;;;;5044878;28;20129;-77
2023/02/19 00:59:35;;;;;;;13.25;4.25;;;10.80;86.20;;;;;;5029132;28;20526;-76
2023/02/19 01:02:01;;;;;;;15.02;4.90;;;10.80;86.00;;;;;;5045474;28;20081;-73
2023/02/19 01:04:27;;;;;;;13.73;3.90;;;10.80;86.00;;;;;;5046503;28;20112;-78
2023/02/19 01:06:53;;;;;;;11.40;4.03;;;10.80;85.90;;;;;;5045806;28;20044;-73
2023/02/19 01:09:18;;;;;;;13.52;4.03;;;10.90;85.70;;;;;;5045900;28;20104;-74
2023/02/19 01:11:44;;;;;;;14.00;5.00;;;10.80;85.70;;;;;;5048463;28;20041;-73
2023/02/19 01:14:10;;;;;;;16.60;4.40;;;10.90;85.40;;;;;;5045643;28;20090;-72
2023/02/19 01:16:36;;;;;;;15.40;4.35;;;10.80;85.50;;;;;;5048751;28;20370;-73
2023/02/19 01:19:02;;;;;;;10.63;4.30;;;10.80;85.40;;;;;;5033152;28;20050;-72
2023/02/19 01:21:29;;;;;;;17.60;4.95;;;10.80;85.40;;;;;;5045693;28;20245;-73
2023/02/19 01:23:56;;;;;;;13.70;4.20;;;10.80;85.10;;;;;;5048305;28;20116;-72
2023/02/19 01:26:28;;;;;;;8.32;3.70;;;10.80;85.10;;;;;;5048826;28;20172;-83
2023/02/19 01:28:54;;;;;;;14.20;4.32;;;10.90;84.90;;;;;;5028542;28;20719;-73
2023/02/19 01:31:22;;;;;;;19.27;4.72;;;10.80;84.70;;;;;;5044535;28;20029;-73
2023/02/19 01:33:50;;;;;;;17.02;4.88;;;10.80;84.40;;;;;;5048520;28;20032;-72
2023/02/19 01:36:16;;;;;;;12.32;3.53;;;10.80;84.30;;;;;;5044941;28;20044;-77
2023/02/19 01:38:43;;;;;;;13.63;4.30;;;10.80;84.30;;;;;;5050880;28;20476;-71
2023/02/19 01:41:12;;;;;;;11.95;3.70;;;10.80;84.30;;;;;;5050276;28;20127;-76
2023/02/19 01:43:56;;;;;;;14.32;3.75;;;10.80;84.20;;;;;;5050743;28;20033;-73
2023/02/19 01:46:33;;;;;;;12.45;4.72;;;10.80;84.10;;;;;;5040295;28;20035;-78
2023/02/19 01:49:10;;;;;;;12.50;4.28;;;10.80;84.00;;;;;;5045689;28;20033;-75
2023/02/19 01:51:40;;;;;;;16.65;4.25;;;10.80;83.90;;;;;;5027076;28;20117;-78
2023/02/19 01:54:08;;;;;;;14.07;3.83;;;10.80;83.90;;;;;;5047239;28;20040;-74
2023/02/19 01:56:37;;;;;;;14.00;4.10;;;10.80;83.90;;;;;;5025139;28;20635;-73
2023/02/19 01:59:04;;;;;;;15.95;3.58;;;10.80;83.80;;;;;;5051370;28;20135;-74
2023/02/19 02:01:30;;;;;;;15.10;4.05;;;10.90;83.50;;;;;;5046569;28;20049;-74
2023/02/19 02:03:56;;;;;;;12.85;3.58;;;10.80;83.60;;;;;;5051544;28;20091;-71
2023/02/19 02:06:26;;;;;;;11.75;3.65;;;10.90;83.60;;;;;;5051853;28;20044;-77
2023/02/19 02:11:44;;;;;;;18.73;4.43;;;10.80;83.60;;;;;;5049878;28;20070;-73
2023/02/19 02:14:10;;;;;;;14.73;4.25;;;10.80;83.40;;;;;;5050955;28;20037;-72
2023/02/19 02:17:04;;;;;;;15.13;4.57;;;10.80;83.60;;;;;;5051598;28;20099;-72
2023/02/19 02:20:02;;;;;;;15.73;4.68;;;10.70;83.60;;;;;;5044332;28;20036;-81
2023/02/19 02:22:43;;;;;;;12.98;3.47;;;10.70;83.50;;;;;;5054787;28;20439;-72
2023/02/19 02:25:17;;;;;;;17.83;3.75;;;10.80;83.50;;;;;;5055497;28;20024;-76
2023/02/19 02:27:55;;;;;;;11.35;3.35;;;10.80;83.60;;;;;;5044031;28;20044;-74
2023/02/19 02:30:26;;;;;;;12.60;4.20;;;10.70;83.70;;;;;;5046655;28;20072;-72
2023/02/19 02:33:13;;;;;;;20.58;4.05;;;10.70;83.70;;;;;;5049033;28;20037;-76
2023/02/19 02:35:52;;;;;;;14.00;3.58;;;10.70;83.70;;;;;;5047241;28;20033;-74
2023/02/19 02:38:23;;;;;;;15.32;4.28;;;10.70;83.80;;;;;;5049755;28;20027;-74
2023/02/19 02:40:50;;;;;;;17.25;4.82;;;10.70;83.70;;;;;;5058245;28;20044;-72
2023/02/19 02:43:16;;;;;;;16.25;4.80;;;10.80;83.70;;;;;;5048631;28;20036;-71
2023/02/19 02:45:42;;;;;;;15.45;4.97;;;10.70;83.70;;;;;;5048882;28;20036;-74
2023/02/19 02:48:14;;;;;;;20.10;9.00;;;10.70;83.70;;;;;;5049603;28;20520;-77
2023/02/19 02:51:01;;;;;;;21.75;11.32;;;10.80;83.50;;;;;;5034893;28;20441;-76
2023/02/19 02:56:20;;;;;;;28.98;16.80;;;10.70;83.40;;;;;;5050542;28;20047;-75
2023/02/19 02:58:48;;;;;;;23.63;15.02;;;10.70;83.50;;;;;;5048154;28;20016;-74
2023/02/19 03:07:35;;;;;;;28.10;15.48;;;10.80;83.50;;;;;;5055136;28;20055;-79
2023/02/19 03:10:03;;;;;;;23.98;12.20;;;10.70;83.60;;;;;;5050713;28;20031;-74
2023/02/19 03:20:53;;;;;;;24.48;5.90;;;10.70;83.70;;;;;;5041076;28;20087;-73
2023/02/19 03:26:02;;;;;;;18.95;5.30;;;10.70;83.80;;;;;;5050447;28;20638;-74
2023/02/19 03:26:10;;;;;;;23.67;5.70;;;10.70;84.00;;;;;;5052823;28;20453;-72
2023/02/19 03:31:26;;;;;;;18.83;5.60;;;10.70;84.10;;;;;;5043973;28;20056;-73
2023/02/19 03:33:58;;;;;;;18.35;5.15;;;10.70;84.00;;;;;;5050783;28;20048;-72
2023/02/19 03:36:29;;;;;;;20.42;4.80;;;10.70;84.00;;;;;;5049583;28;20494;-75
2023/02/19 03:39:01;;;;;;;18.23;5.57;;;10.60;84.10;;;;;;5049170;28;20021;-72
2023/02/19 03:41:37;;;;;;;16.50;5.20;;;10.60;84.20;;;;;;5047573;28;20690;-80
2023/02/19 03:44:09;;;;;;;21.88;5.63;;;10.60;84.20;;;;;;5030787;28;20538;-76
2023/02/19 03:46:51;;;;;;;20.23;6.03;;;10.60;84.20;;;;;;5046878;28;20028;-73
2023/02/19 03:49:39;;;;;;;19.85;4.93;;;10.60;84.30;;;;;;5048402;28;20068;-74
2023/02/19 03:52:18;;;;;;;25.10;5.22;;;10.60;84.40;;;;;;5041779;28;20040;-75
2023/02/19 03:54:53;;;;;;;17.80;6.20;;;10.60;84.20;;;;;;5049149;28;20115;-78
2023/02/19 03:57:51;;;;;;;24.55;5.50;;;10.60;84.40;;;;;;5042626;28;20034;-73
2023/02/19 04:00:26;;;;;;;22.02;5.63;;;10.60;84.40;;;;;;5045369;28;20029;-74
2023/02/19 04:02:57;;;;;;;17.10;4.97;;;10.60;84.20;;;;;;5046171;28;20504;-73
2023/02/19 04:05:29;;;;;;;18.42;5.20;;;10.50;84.40;;;;;;5048626;28;20029;-73
2023/02/19 04:07:59;;;;;;;20.30;5.03;;;10.50;84.50;;;;;;5054174;28;20032;-78
2023/02/19 04:10:26;;;;;;;19.98;6.18;;;10.50;84.50;;;;;;5047552;28;20075;-77
2023/02/19 04:12:59;;;;;;;22.33;4.65;;;10.50;84.40;;;;;;5059158;28;20044;-76
2023/02/19 04:15:29;;;;;;;19.20;4.47;;;10.50;84.40;;;;;;5041226;28;20027;-73
2023/02/19 04:18:07;;;;;;;16.38;4.10;;;10.50;84.30;;;;;;5051984;28;20043;-74
2023/02/19 04:20:39;;;;;;;21.98;5.47;;;10.50;84.30;;;;;;5026490;28;20029;-72
2023/02/19 04:23:06;;;;;;;21.77;4.60;;;10.50;84.20;;;;;;5055584;28;20033;-76
2023/02/19 04:25:33;;;;;;;17.85;4.32;;;10.50;84.30;;;;;;5039942;28;20033;-75
2023/02/19 04:27:59;;;;;;;19.27;4.47;;;10.50;84.40;;;;;;5049578;28;20029;-76
2023/02/19 04:30:25;;;;;;;20.52;5.22;;;10.50;84.40;;;;;;5056685;28;20037;-72
2023/02/19 04:32:50;;;;;;;19.38;4.53;;;10.50;84.30;;;;;;5046988;28;20091;-73
2023/02/19 04:35:16;;;;;;;20.45;4.57;;;10.40;84.10;;;;;;5033487;28;20057;-73
2023/02/19 04:37:42;;;;;;;20.10;4.00;;;10.40;84.20;;;;;;5046592;28;20090;-73
2023/02/19 04:40:08;;;;;;;18.98;4.32;;;10.50;84.00;;;;;;5048450;28;20035;-74
2023/02/19 04:42:34;;;;;;;19.52;3.85;;;10.50;84.00;;;;;;5031866;28;20041;-72
2023/02/19 04:45:00;;;;;;;15.02;4.40;;;10.50;84.00;;;;;;5045938;28;21197;-75
2023/02/19 04:47:25;;;;;;;15.55;4.28;;;10.40;83.90;;;;;;5030993;28;20029;-72
2023/02/19 04:49:51;;;;;;;17.38;4.07;;;10.40;83.90;;;;;;5045234;28;20033;-72
2023/02/19 04:52:17;;;;;;;16.77;4.30;;;10.40;83.70;;;;;;5045720;28;20042;-75
2023/02/19 04:54:42;;;;;;;17.73;4.25;;;10.40;83.70;;;;;;5054177;28;20655;-73
2023/02/19 04:57:08;;;;;;;16.15;4.30;;;10.40;83.60;;;;;;5044021;28;20090;-73
2023/02/19 04:59:34;;;;;;;18.55;4.90;;;10.40;83.60;;;;;;5048661;28;20051;-73
2023/02/19 05:01:59;;;;;;;17.67;4.30;;;10.40;83.40;;;;;;5045386;28;20509;-73
2023/02/19 05:04:25;;;;;;;13.32;4.35;;;10.40;83.40;;;;;;5044177;28;20028;-74
2023/02/19 05:06:51;;;;;;;18.33;4.60;;;10.40;83.10;;;;;;5046745;28;20037;-79
2023/02/19 05:09:17;;;;;;;20.08;5.20;;;10.40;83.10;;;;;;5047873;28;20455;-72
2023/02/19 05:11:42;;;;;;;21.05;4.07;;;10.40;83.10;;;;;;5047733;28;20551;-73
2023/02/19 05:14:08;;;;;;;16.63;3.90;;;10.40;83.10;;;;;;5048036;28;20035;-73
2023/02/19 05:16:34;;;;;;;18.25;4.57;;;10.30;82.90;;;;;;5046566;28;20133;-73
2023/02/19 05:18:59;;;;;;;21.33;4.20;;;10.30;82.90;;;;;;5047947;28;20051;-76
2023/02/19 05:21:25;;;;;;;18.83;4.03;;;10.40;82.80;;;;;;5040026;28;20036;-74
2023/02/19 05:23:51;;;;;;;16.35;4.32;;;10.40;82.80;;;;;;5029011;28;20033;-73
2023/02/19 05:26:20;;;;;;;14.52;3.75;;;10.30;82.90;;;;;;5044851;28;20588;-74
2023/02/19 05:28:48;;;;;;;17.20;4.45;;;10.30;82.70;;;;;;5044069;28;20044;-71
2023/02/19 05:31:15;;;;;;;15.32;4.15;;;10.30;82.70;;;;;;5051366;28;20495;-79
2023/02/19 05:33:41;;;;;;;16.88;4.78;;;10.30;82.60;;;;;;5044971;28;20584;-73
2023/02/19 05:36:10;;;;;;;15.70;4.00;;;10.30;82.50;;;;;;5044700;28;20160;-73
2023/02/19 05:38:36;;;;;;;19.15;4.45;;;10.30;82.50;;;;;;5030934;28;20032;-72
2023/02/19 05:41:14;;;;;;;14.82;3.95;;;10.30;82.60;;;;;;5054907;28;20033;-72
2023/02/19 05:43:42;;;;;;;15.90;3.90;;;10.30;82.40;;;;;;5050128;28;20033;-71
2023/02/19 05:46:09;;;;;;;14.70;4.22;;;10.30;82.40;;;;;;5050896;28;20033;-74
2023/02/19 05:48:35;;;;;;;15.40;3.85;;;10.30;82.30;;;;;;5059154;28;20081;-72
2023/02/19 05:51:05;;;;;;;13.88;4.47;;;10.30;82.30;;;;;;5049546;28;20025;-72
2023/02/19 05:53:32;;;;;;;17.45;4.43;;;10.20;82.20;;;;;;5058139;28;20285;-77
2023/02/19 05:55:57;;;;;;;18.08;5.05;;;10.30;82.10;;;;;;5051859;28;20530;-74
2023/02/19 05:58:23;;;;;;;16.25;4.00;;;10.30;82.00;;;;;;5034224;28;20100;-72
2023/02/19 06:00:49;;;;;;;15.98;3.38;;;10.30;82.10;;;;;;5050051;28;20035;-74
2023/02/19 06:03:15;;;;;;;14.88;4.00;;;10.30;82.10;;;;;;5051489;28;20104;-76
2023/02/19 06:05:41;;;;;;;19.75;4.22;;;10.20;82.20;;;;;;5049092;28;20116;-74
2023/02/19 06:08:06;;;;;;;14.50;3.10;;;10.20;82.00;;;;;;5051245;28;20452;-72
2023/02/19 06:10:33;;;;;;;12.95;3.25;;;10.20;82.00;;;;;;5054711;28;20048;-74
2023/02/19 06:12:58;;;;;;;14.80;3.42;;;10.30;81.90;;;;;;5031961;28;20084;-75
2023/02/19 06:15:24;;;;;;;16.60;3.95;;;10.20;81.70;;;;;;5049869;28;20041;-74
2023/02/19 06:17:50;;;;;;;15.30;4.68;;;10.20;81.70;;;;;;5055093;28;20125;-72
2023/02/19 06:20:15;;;;;;;13.25;3.70;;;10.30;81.70;;;;;;5051207;28;20070;-79
2023/02/19 06:22:41;;;;;;;11.40;3.03;;;10.20;81.50;;;;;;5054014;28;20130;-72
2023/02/19 06:25:11;;;;;;;16.67;4.07;;;10.30;81.50;;;;;;5054789;28;20075;-74
2023/02/19 06:27:38;;;;;;;12.68;3.42;;;10.30;81.30;;;;;;5049699;28;20484;-73
2023/02/19 06:30:04;;;;;;;14.10;3.13;;;10.30;81.50;;;;;;5056622;28;20048;-80
2023/02/19 06:32:29;;;;;;;14.95;4.05;;;10.20;81.60;;;;;;5031273;28;20542;-72
2023/02/19 06:34:55;;;;;;;14.07;3.38;;;10.30;81.40;;;;;;5051311;28;20024;-74
2023/02/19 06:37:21;;;;;;;11.98;2.90;;;10.20;81.50;;;;;;5033284;28;20021;-75
2023/02/19 06:39:46;;;;;;;13.82;3.88;;;10.20;81.50;;;;;;5050845;28;20043;-79
2023/02/19 06:42:12;;;;;;;16.38;3.15;;;10.20;81.50;;;;;;5043069;28;20029;-74
2023/02/19 06:44:38;;;;;;;13.73;3.22;;;10.20;81.50;;;;;;5043531;28;20116;-74
2023/02/19 06:47:03;;;;;;;18.60;4.50;;;10.20;81.60;;;;;;5040547;28;20469;-72
2023/02/19 06:49:29;;;;;;;15.27;3.80;;;10.30;81.70;;;;;;5029017;28;20052;-75
2023/02/19 06:51:55;;;;;;;13.38;3.83;;;10.20;81.70;;;;;;5040293;28;20041;-73
2023/02/19 06:54:21;;;;;;;16.85;4.13;;;10.20;81.60;;;;;;5039609;28;20500;-82
2023/02/19 06:56:46;;;;;;;15.18;3.58;;;10.20;81.60;;;;;;5037882;28;20350;-74
2023/02/19 06:59:15;;;;;;;14.40;4.80;;;10.20;81.60;;;;;;5037929;28;20450;-76
2023/02/19 07:01:42;;;;;;;14.25;3.80;;;10.20;81.60;;;;;;5022937;28;20041;-74
2023/02/19 07:04:08;;;;;;;11.85;3.40;;;10.20;81.70;;;;;;5038034;28;20489;-75
2023/02/19 07:06:34;;;;;;;12.38;3.30;;;10.20;81.80;;;;;;5039237;28;20091;-73
2023/02/19 07:09:01;;;;;;;15.70;3.53;;;10.20;81.80;;;;;;5039130;28;20507;-73
2023/02/19 07:11:30;;;;;;;14.98;3.85;;;10.20;81.70;;;;;;5040201;28;20051;-76
2023/02/19 07:14:01;;;;;;;15.50;4.30;;;10.20;81.70;;;;;;5045840;28;20028;-73
2023/02/19 07:16:27;;;;;;;15.88;3.50;;;10.20;81.80;;;;;;5042086;28;20033;-73
2023/02/19 07:18:56;;;;;;;13.52;3.72;;;10.20;81.90;;;;;;5043071;28;20496;-75
2023/02/19 07:21:22;;;;;;;12.98;3.28;;;10.20;81.90;;;;;;5045231;28;20037;-77
2023/02/19 07:23:48;;;;;;;12.15;3.47;;;10.20;81.80;;;;;;5049408;28;20298;-73
2023/02/19 07:26:16;;;;;;;13.07;3.50;;;10.20;81.70;;;;;;5043881;28;20041;-76
2023/02/19 07:28:43;;;;;;;16.88;3.72;;;10.20;81.60;;;;;;5041323;28;20032;-74
2023/02/19 07:31:09;;;;;;;15.18;4.32;;;10.20;81.60;;;;;;5041060;28;20034;-72
2023/02/19 07:33:34;;;;;;;16.48;3.92;;;10.20;81.70;;;;;;5042365;28;20040;-72
2023/02/19 07:36:00;;;;;;;13.25;3.88;;;10.20;81.70;;;;;;5043148;28;20033;-73
2023/02/19 07:38:26;;;;;;;12.93;3.70;;;10.30;81.60;;;;;;5041035;28;20029;-74
2023/02/19 07:41:03;;;;;;;12.02;3.08;;;10.20;81.60;;;;;;5041079;28;20425;-73
2023/02/19 07:43:31;;;;;;;16.52;3.95;;;10.20;81.50;;;;;;5041882;28;20040;-73
2023/02/19 07:45:57;;;;;;;19.42;4.82;;;10.20;81.50;;;;;;5026059;28;20562;-73
2023/02/19 07:48:23;;;;;;;13.35;4.13;;;10.20;81.50;;;;;;5045052;28;20029;-73
2023/02/19 07:50:58;;;;;;;14.65;3.95;;;10.30;81.50;;;;;;5042834;28;20036;-73
2023/02/19 07:53:25;;;;;;;16.52;4.07;;;10.30;81.60;;;;;;5044409;28;20057;-76
2023/02/19 07:55:51;;;;;;;17.83;4.32;;;10.30;81.50;;;;;;5038498;28;20428;-74
2023/02/19 07:58:17;;;;;;;17.13;5.63;;;10.30;81.30;;;;;;5045261;28;20040;-74
2023/02/19 08:00:43;;;;;;;15.45;4.28;;;10.30;81.30;;;;;;5042268;28;20033;-75
2023/02/19 08:03:09;;;;;;;11.38;3.92;;;10.40;81.40;;;;;;5041037;28;20032;-72
2023/02/19 08:05:39;;;;;;;13.85;3.60;;;10.30;81.20;;;;;;5041551;28;20070;-72
2023/02/19 08:08:10;;;;;;;14.63;4.35;;;10.40;81.10;;;;;;5038840;28;20540;-74
2023/02/19 08:13:24;;;;;;;14.73;3.87;;;10.40;81.00;;;;;;5038524;28;20625;-79
2023/02/19 08:15:55;;;;;;;12.13;3.38;;;10.50;80.90;;;;;;5039557;28;20033;-73
2023/02/19 08:18:25;;;;;;;14.82;3.75;;;10.40;80.80;;;;;;5043499;28;20029;-72
2023/02/19 08:20:51;;;;;;;17.92;4.18;;;10.40;81.00;;;;;;5041320;28;20576;-74
2023/02/19 08:23:19;;;;;;;12.15;3.70;;;10.40;80.70;;;;;;5039312;28;20052;-76
2023/02/19 08:25:45;;;;;;;14.75;4.13;;;10.50;80.70;;;;;;5039229;28;20028;-75
2023/02/19 08:28:11;;;;;;;13.05;4.00;;;10.50;80.70;;;;;;5039228;28;20108;-75
2023/02/19 08:30:39;;;;;;;12.60;4.38;;;10.50;80.50;;;;;;5040819;28;20418;-79
2023/02/19 08:33:06;;;;;;;15.73;5.38;;;10.50;80.50;;;;;;5038854;28;20393;-73
2023/02/19 08:35:35;;;;;;;13.07;3.88;;;10.60;80.50;;;;;;5041377;28;20035;-74
2023/02/19 08:38:01;;;;;;;17.23;4.75;;;10.60;80.50;;;;;;5043343;28;20082;-75
2023/02/19 08:40:26;;;;;;;13.23;4.13;;;10.60;80.50;;;;;;5039903;28;20013;-72
2023/02/19 08:42:52;;;;;;;16.83;5.60;;;10.60;80.30;;;;;;5041797;28;20034;-74
2023/02/19 08:45:18;;;;;;;10.40;3.42;;;10.60;80.00;;;;;;5043682;28;20027;-73
2023/02/19 08:47:44;;;;;;;12.95;4.00;;;10.60;80.00;;;;;;5039462;28;20035;-78
2023/02/19 08:50:10;;;;;;;14.38;4.68;;;10.60;80.00;;;;;;5044362;28;20508;-73
2023/02/19 08:52:36;;;;;;;13.23;4.15;;;10.70;80.20;;;;;;5021391;28;20041;-73
2023/02/19 08:55:04;;;;;;;14.40;3.88;;;10.60;79.60;;;;;;5041721;28;20032;-74
2023/02/19 08:57:30;;;;;;;15.18;4.47;;;10.70;79.70;;;;;;5037422;28;20048;-73
2023/02/19 08:59:56;;;;;;;12.18;3.53;;;10.80;79.70;;;;;;5023963;28;20363;-72
2023/02/19 09:02:23;;;;;;;13.90;3.30;;;10.80;79.70;;;;;;5039339;28;20041;-80
2023/02/19 09:04:48;;;;;;;13.82;3.85;;;10.90;79.70;;;;;;5023093;28;20056;-81
2023/02/19 09:07:14;;;;;;;13.63;4.07;;;11.00;79.50;;;;;;5036502;28;20041;-73
2023/02/19 09:09:40;;;;;;;12.90;3.85;;;11.00;79.10;;;;;;5035811;28;20052;-77
2023/02/19 09:12:07;;;;;;;12.15;3.88;;;11.10;79.20;;;;;;5038421;28;20108;-73
2023/02/19 09:14:34;;;;;;;15.30;4.07;;;11.00;79.20;;;;;;5039723;28;20109;-73
2023/02/19 09:17:01;;;;;;;14.18;4.18;;;11.00;78.90;;;;;;5039967;28;20495;-73
2023/02/19 09:19:27;;;;;;;12.80;3.78;;;11.00;78.90;;;;;;5039283;28;20028;-74
2023/02/19 09:21:53;;;;;;;12.40;4.13;;;11.00;78.90;;;;;;5037274;28;20052;-72
2023/02/19 09:24:20;;;;;;;13.02;4.47;;;10.90;79.00;;;;;;5035403;28;20458;-75
2023/02/19 09:26:48;;;;;;;13.40;3.63;;;11.00;79.10;;;;;;5042667;28;20060;-77
2023/02/19 09:29:14;;;;;;;11.98;3.72;;;10.90;79.20;;;;;;5023774;28;20144;-72
2023/02/19 09:31:40;;;;;;;14.25;3.92;;;10.90;78.80;;;;;;5020947;28;20136;-79
2023/02/19 09:34:06;;;;;;;14.35;3.80;;;10.80;78.90;;;;;;5030030;28;20030;-76
2023/02/19 09:36:32;;;;;;;15.98;4.35;;;10.90;79.10;;;;;;5023772;28;20549;-76
2023/02/19 09:39:01;;;;;;;19.10;5.07;;;11.00;78.90;;;;;;5027041;28;20049;-80
2023/02/19 09:41:31;;;;;;;15.50;4.50;;;11.00;78.80;;;;;;5019803;28;20056;-80
2023/02/19 09:43:58;;;;;;;17.23;4.93;;;11.00;78.70;;;;;;5020675;28;20032;-80
2023/02/19 09:46:31;;;;;;;14.23;4.53;;;11.10;78.70;;;;;;5023252;28;20056;-81
2023/02/19 09:49:06;;;;;;;12.90;3.80;;;11.20;78.30;;;;;;5022718;28;20099;-79
2023/02/19 09:51:36;;;;;;;16.23;4.35;;;11.30;78.00;;;;;;5019085;28;20128;-80
2023/02/19 09:54:05;;;;;;;14.95;3.88;;;11.20;78.30;;;;;;5022196;28;20021;-79
2023/02/19 09:56:31;;;;;;;12.95;3.60;;;11.20;78.20;;;;;;5019874;28;21416;-80
2023/02/19 09:58:58;;;;;;;19.17;3.90;;;11.20;78.30;;;;;;5023101;28;20465;-81
2023/02/19 10:01:27;;;;;;;14.00;3.75;;;11.20;78.30;;;;;;5021092;28;20041;-80
2023/02/19 10:03:53;;;;;;;14.18;3.92;;;11.20;78.40;;;;;;5022335;28;20036;-81
2023/02/19 10:06:24;;;;;;;12.55;4.25;;;11.10;78.50;;;;;;5024360;28;20037;-81
2023/02/19 10:08:53;;;;;;;12.55;3.63;;;11.10;78.20;;;;;;5025823;28;20022;-81
2023/02/19 10:11:18;;;;;;;14.15;3.80;;;11.10;78.40;;;;;;5021593;28;20061;-81
2023/02/19 10:14:02;;;;;;;16.95;4.85;;;11.10;78.40;;;;;;5022590;28;20057;-81
2023/02/19 10:16:29;;;;;;;14.90;4.43;;;11.10;78.10;;;;;;5018497;28;20053;-80
2023/02/19 10:18:55;;;;;;;15.13;4.05;;;11.10;78.20;;;;;;5012034;28;20081;-80
2023/02/19 10:21:24;;;;;;;17.17;4.03;;;11.20;78.10;;;;;;5012225;28;20112;-81
2023/02/19 10:23:54;;;;;;;14.98;3.63;;;11.30;77.90;;;;;;5017959;28;20537;-80
2023/02/19 10:26:21;;;;;;;12.68;4.40;;;11.30;78.00;;;;;;5024417;28;20049;-81
2023/02/19 10:28:47;;;;;;;14.25;5.25;;;11.40;77.60;;;;;;5021753;28;20133;-81
2023/02/19 10:31:21;;;;;;;14.88;4.05;;;11.30;77.70;;;;;;5040900;28;20555;-80
2023/02/19 10:34:02;;;;;;;12.98;4.40;;;11.40;77.70;;;;;;5032841;28;20024;-80
2023/02/19 10:36:29;;;;;;;15.35;4.68;;;11.40;77.50;;;;;;5049646;28;20044;-81
2023/02/19 10:38:56;;;;;;;12.98;3.92;;;11.50;77.20;;;;;;5051081;28;20028;-80
2023/02/19 10:41:24;;;;;;;16.00;4.55;;;11.50;77.10;;;;;;5047972;28;20045;-79
2023/02/19 10:44:13;;;;;;;12.85;3.47;;;11.30;76.40;;;;;;5030277;28;20364;-81
2023/02/19 10:46:48;;;;;;;12.77;3.72;;;11.30;76.70;;;;;;5044721;28;20086;-81
2023/02/19 10:49:36;;;;;;;16.15;4.03;;;11.20;76.60;;;;;;5046847;28;20093;-80
2023/02/19 10:52:19;;;;;;;8.77;3.15;;;11.20;76.70;;;;;;5040203;28;20045;-80
2023/02/19 10:54:48;;;;;;;9.38;3.63;;;11.30;76.50;;;;;;5044793;28;20095;-80
2023/02/19 10:57:14;;;;;;;10.10;3.50;;;11.20;76.70;;;;;;5050299;28;20045;-81
2023/02/19 11:00:00;;;;;;;8.13;3.33;;;11.10;76.60;;;;;;5052642;28;20396;-80
2023/02/19 11:02:27;;;;;;;10.90;3.65;;;11.10;77.10;;;;;;5048828;28;20029;-80
2023/02/19 11:05:08;;;;;;;12.65;3.70;;;11.00;77.10;;;;;;5052391;28;20033;-80
2023/02/19 11:07:57;;;;;;;13.25;4.55;;;11.00;77.40;;;;;;5048963;28;20060;-79
2023/02/19 11:10:38;;;;;;;11.27;3.63;;;11.10;77.60;;;;;;5040912;28;20041;-80
2023/02/19 11:13:05;;;;;;;13.65;3.72;;;11.10;77.00;;;;;;5051910;28;20521;-80
2023/02/19 11:15:33;;;;;;;12.65;4.03;;;11.00;77.20;;;;;;5033295;28;20080;-80
2023/02/19 11:18:06;;;;;;;10.75;3.47;;;11.10;77.40;;;;;;5044813;28;20414;-79
2023/02/19 11:20:32;;;;;;;11.85;3.88;;;11.00;77.50;;;;;;5043702;28;20068;-80
2023/02/19 11:23:14;;;;;;;11.15;3.55;;;11.00;77.30;;;;;;5045794;28;20072;-80
2023/02/19 11:25:48;;;;;;;9.80;3.80;;;11.00;77.20;;;;;;5044659;28;20025;-79
2023/02/19 11:28:30;;;;;;;11.18;4.43;;;11.10;77.20;;;;;;5047952;28;20517;-79
2023/02/19 11:31:17;;;;;;;13.35;4.57;;;11.10;77.10;;;;;;5044816;28;20052;-79
2023/02/19 11:33:51;;;;;;;12.15;4.55;;;11.10;77.20;;;;;;5046057;28;20040;-80
2023/02/19 11:36:19;;;;;;;11.40;4.40;;;11.10;77.20;;;;;;5028441;28;20068;-79
2023/02/19 11:38:45;;;;;;;11.05;4.13;;;11.10;77.00;;;;;;5044426;28;20062;-81
2023/02/19 11:41:40;;;;;;;12.60;4.60;;;11.10;77.10;;;;;;5047674;28;20028;-78
2023/02/19 11:44:11;;;;;;;11.60;5.10;;;11.10;76.80;;;;;;5050204;28;20061;-78
2023/02/19 11:47:13;;;;;;;13.48;6.13;;;10.90;76.50;;;;;;5042753;28;20132;-81
2023/02/19 11:49:47;;;;;;;11.98;5.60;;;10.90;76.50;;;;;;5003328;28;20430;-79
2023/02/19 11:52:24;;;;;;;13.43;5.88;;;11.00;76.30;;;;;;5045424;28;20471;-79
2023/02/19 11:54:57;;;;;;;13.13;4.88;;;11.00;76.40;;;;;;5050372;28;20033;-79
2023/02/19 11:57:34;;;;;;;9.65;3.83;;;11.10;76.30;;;;;;5050725;28;20025;-80
2023/02/19 12:00:22;;;;;;;12.85;6.10;;;11.20;76.00;;;;;;5045937;28;20033;-80
2023/02/19 12:02:59;;;;;;;8.60;4.38;;;11.10;76.20;;;;;;5044691;28;20383;-80
2023/02/19 12:05:55;;;;;;;8.25;3.45;;;11.10;76.00;;;;;;5038746;28;20379;-79
2023/02/19 12:09:28;;;;;;;11.60;4.45;;;11.20;76.00;;;;;;5043459;28;20060;-78
2023/02/19 12:11:58;;;;;;;12.63;4.43;;;11.10;75.40;;;;;;4948374;28;20036;-79
2023/02/19 12:14:57;;;;;;;13.02;4.63;;;11.10;76.10;;;;;;5041627;28;20024;-80
2023/02/19 12:17:42;;;;;;;11.38;4.90;;;11.10;76.40;;;;;;5042691;28;20599;-79
2023/02/19 12:20:26;;;;;;;12.45;4.63;;;11.10;76.10;;;;;;5048509;28;20077;-80
2023/02/19 12:23:09;;;;;;;13.13;4.70;;;11.00;75.80;;;;;;5046055;28;20041;-79
2023/02/19 12:25:58;;;;;;;15.13;4.40;;;11.10;76.20;;;;;;5034558;28;20041;-80
2023/02/19 12:28:27;;;;;;;11.88;4.10;;;11.10;76.30;;;;;;5049879;28;20020;-79
2023/02/19 12:31:17;;;;;;;8.63;4.00;;;10.90;76.00;;;;;;5048828;28;20044;-78
2023/02/19 12:34:15;;;;;;;10.95;4.00;;;10.90;76.40;;;;;;5045493;28;20029;-77
2023/02/19 12:36:53;;;;;;;13.85;4.13;;;10.80;76.80;;;;;;5047960;28;20393;-79
2023/02/19 12:39:25;;;;;;;8.45;3.40;;;10.70;77.30;;;;;;5042407;28;20060;-80
2023/02/19 12:42:30;;;;;;;10.48;3.50;;;10.70;77.40;;;;;;5042330;28;20048;-80
2023/02/19 12:45:22;;;;;;;10.30;3.85;;;10.70;77.50;;;;;;5023626;28;20024;-78
2023/02/19 12:48:02;;;;;;;10.93;3.97;;;10.70;77.30;;;;;;5039895;28;20049;-79
2023/02/19 12:50:29;;;;;;;10.48;3.67;;;10.60;77.30;;;;;;5009803;28;20052;-79
2023/02/19 12:53:21;;;;;;;10.82;4.15;;;10.60;77.20;;;;;;5038929;28;20050;-79
2023/02/19 12:55:47;;;;;;;8.13;4.10;;;10.60;77.50;;;;;;5035783;28;20562;-79
2023/02/19 12:58:34;;;;;;;8.70;3.40;;;10.70;77.10;;;;;;5031757;28;20714;-78
2023/02/19 13:01:00;;;;;;;10.88;4.20;;;10.70;76.80;;;;;;5036798;28;20083;-79
2023/02/19 13:03:34;;;;;;;12.38;4.35;;;10.80;76.60;;;;;;5017882;28;20592;-77
2023/02/19 13:06:31;;;;;;;12.38;3.72;;;10.90;76.20;;;;;;5031494;28;20052;-78
2023/02/19 13:09:28;;;;;;;9.48;3.72;;;10.80;75.40;;;;;;5035322;28;20023;-78
2023/02/19 13:12:17;;;;;;;7.28;3.08;;;10.80;74.80;;;;;;5032951;28;20116;-77
2023/02/19 13:14:47;;;;;;;7.63;3.70;;;10.80;75.30;;;;;;5033765;28;20041;-78
2023/02/19 13:17:46;;;;;;;7.53;3.30;;;10.80;75.10;;;;;;5035600;28;20124;-78
2023/02/19 13:20:24;;;;;;;8.07;3.25;;;10.70;75.00;;;;;;5038535;28;20028;-78
2023/02/19 13:26:32;;;;;;;7.55;3.65;;;10.70;75.10;;;;;;5039731;28;20036;-78